Jeanie G — WDB2354 — position and weather

sailwx.info

Track history (hours):
 
Tides and Currents Weather Stations Pressure Air Temp Water Temp Dewpoint Dewpoint Depression Visibility Wind Speed Wind Dir Waves Ship Positions

Jeanie G

Owner: MARTIN OPERATING PARTNERSHIP LP, VIDOR, TX. More information available from US FCC via Universal Licensing System and Coast Guard Vessel Documentation Center.

Last reported at 2015-Mar-24 21:21 UTC. Time now 2015-Apr-02 01:28 UTC.
Position N 29°56' W 090°00'.
Warning: this ship's position is 8 days out of date.

MMSI: 366875010.

Date/timePositionNaut miles runAvg speedWind from/ knotsBaromVisibWave heightAir tempDewpointWater temp
2015-Mar-24 21:21N 29°56' W 090°00'0 0.0
2015-Mar-24 17:05N 29°56' W 090°00'0 0.0
2015-Mar-24 16:28N 29°56' W 090°00'0 0.0
2015-Mar-24 15:20N 29°56' W 090°00'0 0.0
2015-Mar-24 14:25N 29°56' W 090°00'0 0.3
2015-Mar-24 13:21N 29°56' W 090°00'0 0.3
2015-Mar-24 12:30N 29°56' W 090°00'0 0.0
2015-Mar-24 11:18N 29°56' W 090°00'0 0.0
2015-Mar-24 10:30N 29°56' W 090°00'0 0.0
2015-Mar-24 09:33N 29°56' W 090°00'0 0.0
2015-Mar-24 08:33N 29°56' W 090°00'0 0.0
2015-Mar-24 07:32N 29°56' W 090°00'0 0.0
2015-Mar-24 06:32N 29°56' W 090°00'0 0.0
2015-Mar-24 05:29N 29°56' W 090°00'0 0.0
2015-Mar-24 04:33N 29°56' W 090°00'0 0.0
2015-Mar-24 03:32N 29°56' W 090°00'0 0.0
2015-Mar-24 02:32N 29°56' W 090°00'0 0.1
2015-Mar-24 01:25N 29°56' W 090°00'0 0.1
2015-Mar-24 00:30N 29°56' W 090°00'0 0.0
2015-Mar-23 23:26N 29°56' W 090°00'0 0.0
2015-Mar-23 22:33N 29°56' W 090°00'0 0.0
2015-Mar-23 21:27N 29°56' W 090°00'0 0.0
2015-Mar-23 20:29N 29°56' W 090°00'0 0.0
2015-Mar-23 06:15N 29°56' W 090°00'2 1.1
2015-Mar-23 04:31N 29°55' W 089°58'0 0.0
2015-Mar-23 01:17N 29°56' W 089°58'0 0.0
2015-Mar-23 00:10N 29°56' W 089°58'0 0.0
2015-Mar-22 22:28N 29°56' W 089°58'0 0.0
2015-Mar-22 21:22N 29°56' W 089°58'0 0.0
2015-Mar-22 20:27N 29°56' W 089°58'0 0.0
2015-Mar-22 19:30N 29°56' W 089°58'0 0.0
2015-Mar-22 17:20N 29°56' W 089°58'2 2.5
2015-Mar-22 16:28N 29°57' W 090°00'1 0.5
2015-Mar-22 15:17N 29°56' W 090°00'0 0.0
2015-Mar-22 14:32N 29°56' W 090°00'0 0.0
2015-Mar-22 13:30N 29°56' W 090°00'0 0.0
2015-Mar-22 12:32N 29°56' W 090°00'0 0.0
2015-Mar-22 11:31N 29°56' W 090°00'0 0.0
2015-Mar-22 10:33N 29°56' W 090°00'0 0.0
2015-Mar-22 09:32N 29°56' W 090°00'0 0.0
2015-Mar-22 08:32N 29°56' W 090°00'0 0.0
2015-Mar-22 07:33N 29°56' W 090°00'0 0.0
2015-Mar-22 06:28N 29°56' W 090°00'0 0.0
2015-Mar-22 05:26N 29°56' W 090°00'0 0.0
2015-Mar-22 04:32N 29°56' W 090°00'0 0.0
2015-Mar-22 03:32N 29°56' W 090°00'0 0.0
2015-Mar-22 02:26N 29°56' W 090°00'0 0.0
2015-Mar-22 01:24N 29°56' W 090°00'0 0.0
2015-Mar-22 00:32N 29°56' W 090°00'0 0.0
2015-Mar-21 00:17N 29°56' W 090°00'0 0.0
2015-Mar-20 22:17N 29°56' W 090°00'0 0.0
2015-Mar-20 21:29N 29°56' W 090°00'0 0.0
2015-Mar-20 20:31N 29°56' W 090°00'0 0.0
2015-Mar-20 19:26N 29°56' W 090°00'0 0.0
2015-Mar-20 18:28N 29°56' W 090°00'0 0.0
2015-Mar-20 17:33N 29°56' W 090°00'0 0.1
2015-Mar-20 16:32N 29°56' W 089°60'0 0.1
2015-Mar-20 15:29N 29°56' W 090°00'0 0.0
2015-Mar-20 14:33N 29°56' W 090°00'0 0.0
2015-Mar-20 13:32N 29°56' W 090°00'0 0.0
2015-Mar-20 12:32N 29°56' W 090°00'0 0.0
2015-Mar-20 11:31N 29°56' W 090°00'0 0.0
2015-Mar-20 10:18N 29°56' W 090°00'0 0.0
2015-Mar-19 15:24N 29°56' W 090°00'0 0.0
2015-Mar-19 14:18N 29°56' W 090°00'0 0.0
2015-Mar-19 12:28N 29°56' W 090°00'0 0.0
2015-Mar-19 11:31N 29°56' W 090°00'0 0.0
2015-Mar-19 10:33N 29°56' W 090°00'0 0.5
2015-Mar-19 09:32N 29°56' W 089°60'0 0.2
2015-Mar-19 08:29N 29°56' W 089°59'0 0.0
2015-Mar-19 07:32N 29°56' W 089°59'0 0.0
2015-Mar-19 06:29N 29°56' W 089°59'0 0.0
2015-Mar-19 05:22N 29°56' W 089°59'0 0.0
2015-Mar-19 04:31N 29°56' W 089°59'0 0.0
2015-Mar-19 03:33N 29°56' W 089°59'0 0.0
2015-Mar-19 02:31N 29°56' W 089°59'0 0.0
2015-Mar-19 01:31N 29°56' W 089°59'0 0.0
2015-Mar-19 00:32N 29°56' W 089°59'4 3.8
2015-Mar-18 23:33N 29°57' W 090°03'4 3.4
2015-Mar-18 22:17N 29°53' W 090°04'3 1.5
2015-Mar-18 20:32N 29°50' W 090°04'0 0.0
2015-Mar-18 18:10N 29°50' W 090°04'0 0.0
2015-Mar-18 16:12N 29°50' W 090°04'0 0.0
2015-Mar-17 18:29N 29°50' W 090°04'4 2.1
2015-Mar-17 16:32N 29°54' W 090°05'1 0.7
2015-Mar-17 15:28N 29°55' W 090°05'3 2.4
2015-Mar-17 14:17N 29°57' W 090°03'2 2.8
2015-Mar-17 13:33N 29°57' W 090°01'1 0.8
2015-Mar-17 12:32N 29°56' W 090°00'0 0.2
2015-Mar-17 11:33N 29°56' W 090°00'0 0.0
2015-Mar-17 10:31N 29°56' W 090°00'0 0.0
2015-Mar-17 09:32N 29°56' W 090°00'0 0.0
2015-Mar-17 08:32N 29°56' W 090°00'0 0.0
2015-Mar-17 07:33N 29°56' W 090°00'0 0.0
2015-Mar-17 06:33N 29°56' W 090°00'0 0.0
2015-Mar-17 05:30N 29°56' W 090°00'0 0.0
2015-Mar-17 04:32N 29°56' W 090°00'0 0.1
2015-Mar-17 03:32N 29°56' W 090°00'0 0.1
2015-Mar-17 02:34N 29°56' W 090°00'0 0.0
2015-Mar-17 01:33N 29°56' W 090°00'0 0.0
2015-Mar-17 00:29N 29°56' W 090°00'0 0.0
2015-Mar-16 23:31N 29°56' W 090°00'0 0.0
2015-Mar-16 22:23N 29°56' W 090°00'0 0.0
2015-Mar-16 21:33N 29°56' W 090°00'0 0.0
2015-Mar-16 20:32N 29°56' W 090°00'0 0.0
2015-Mar-16 19:27N 29°56' W 090°00'0 0.0
2015-Mar-16 18:10N 29°56' W 090°00'4 0.2
2015-Mar-15 22:33N 29°60' W 090°00'0 0.0
2015-Mar-15 20:28N 29°60' W 090°00'0 0.0
2015-Mar-15 19:10N 29°60' W 090°00'0 0.0
2015-Mar-15 18:32N 29°60' W 090°00'0 0.0
2015-Mar-15 17:29N 29°60' W 090°00'0 0.0
2015-Mar-15 16:30N 29°60' W 090°00'0 0.0
2015-Mar-15 15:30N 29°60' W 090°00'0 0.0
2015-Mar-15 14:27N 29°60' W 090°00'0 0.0
2015-Mar-15 13:30N 29°60' W 090°00'0 0.0
2015-Mar-15 12:33N 29°60' W 090°00'0 0.0
2015-Mar-15 11:31N 29°60' W 090°00'0 0.0
2015-Mar-15 10:33N 29°60' W 090°00'0 0.2
2015-Mar-15 09:32N 29°60' W 090°01'0 0.1
2015-Mar-15 08:33N 29°60' W 090°01'0 0.3
2015-Mar-15 07:33N 29°60' W 090°00'6 5.7
2015-Mar-15 06:33N 30°01' W 089°54'  
Track history (hours):
 
Tides and Currents Weather Stations Pressure Air Temp Water Temp Dewpoint Dewpoint Depression Visibility Wind Speed Wind Dir Waves Ship Positions

Jeanie G

Owner: MARTIN OPERATING PARTNERSHIP LP, VIDOR, TX. More information available from US FCC via Universal Licensing System and Coast Guard Vessel Documentation Center.

Last reported at 2015-Mar-24 21:21 UTC. Time now 2015-Apr-02 01:28 UTC.
Position N 29°56' W 090°00'.
Warning: this ship's position is 8 days out of date.

MMSI: 366875010.

Date/timePositionNaut miles runAvg speedWind from/ knotsBaromVisibWave heightAir tempDewpointWater temp
2015-Mar-24 21:21N 29°56' W 090°00'0 0.0
2015-Mar-24 17:05N 29°56' W 090°00'0 0.0
2015-Mar-24 16:28N 29°56' W 090°00'0 0.0
2015-Mar-24 15:20N 29°56' W 090°00'0 0.0
2015-Mar-24 14:25N 29°56' W 090°00'0 0.3
2015-Mar-24 13:21N 29°56' W 090°00'0 0.3
2015-Mar-24 12:30N 29°56' W 090°00'0 0.0
2015-Mar-24 11:18N 29°56' W 090°00'0 0.0
2015-Mar-24 10:30N 29°56' W 090°00'0 0.0
2015-Mar-24 09:33N 29°56' W 090°00'0 0.0
2015-Mar-24 08:33N 29°56' W 090°00'0 0.0
2015-Mar-24 07:32N 29°56' W 090°00'0 0.0
2015-Mar-24 06:32N 29°56' W 090°00'0 0.0
2015-Mar-24 05:29N 29°56' W 090°00'0 0.0
2015-Mar-24 04:33N 29°56' W 090°00'0 0.0
2015-Mar-24 03:32N 29°56' W 090°00'0 0.0
2015-Mar-24 02:32N 29°56' W 090°00'0 0.1
2015-Mar-24 01:25N 29°56' W 090°00'0 0.1
2015-Mar-24 00:30N 29°56' W 090°00'0 0.0
2015-Mar-23 23:26N 29°56' W 090°00'0 0.0
2015-Mar-23 22:33N 29°56' W 090°00'0 0.0
2015-Mar-23 21:27N 29°56' W 090°00'0 0.0
2015-Mar-23 20:29N 29°56' W 090°00'0 0.0
2015-Mar-23 06:15N 29°56' W 090°00'2 1.1
2015-Mar-23 04:31N 29°55' W 089°58'0 0.0
2015-Mar-23 01:17N 29°56' W 089°58'0 0.0
2015-Mar-23 00:10N 29°56' W 089°58'0 0.0
2015-Mar-22 22:28N 29°56' W 089°58'0 0.0
2015-Mar-22 21:22N 29°56' W 089°58'0 0.0
2015-Mar-22 20:27N 29°56' W 089°58'0 0.0
2015-Mar-22 19:30N 29°56' W 089°58'0 0.0
2015-Mar-22 17:20N 29°56' W 089°58'2 2.5
2015-Mar-22 16:28N 29°57' W 090°00'1 0.5
2015-Mar-22 15:17N 29°56' W 090°00'0 0.0
2015-Mar-22 14:32N 29°56' W 090°00'0 0.0
2015-Mar-22 13:30N 29°56' W 090°00'0 0.0
2015-Mar-22 12:32N 29°56' W 090°00'0 0.0
2015-Mar-22 11:31N 29°56' W 090°00'0 0.0
2015-Mar-22 10:33N 29°56' W 090°00'0 0.0
2015-Mar-22 09:32N 29°56' W 090°00'0 0.0
2015-Mar-22 08:32N 29°56' W 090°00'0 0.0
2015-Mar-22 07:33N 29°56' W 090°00'0 0.0
2015-Mar-22 06:28N 29°56' W 090°00'0 0.0
2015-Mar-22 05:26N 29°56' W 090°00'0 0.0
2015-Mar-22 04:32N 29°56' W 090°00'0 0.0
2015-Mar-22 03:32N 29°56' W 090°00'0 0.0
2015-Mar-22 02:26N 29°56' W 090°00'0 0.0
2015-Mar-22 01:24N 29°56' W 090°00'0 0.0
2015-Mar-22 00:32N 29°56' W 090°00'0 0.0
2015-Mar-21 00:17N 29°56' W 090°00'0 0.0
2015-Mar-20 22:17N 29°56' W 090°00'0 0.0
2015-Mar-20 21:29N 29°56' W 090°00'0 0.0
2015-Mar-20 20:31N 29°56' W 090°00'0 0.0
2015-Mar-20 19:26N 29°56' W 090°00'0 0.0
2015-Mar-20 18:28N 29°56' W 090°00'0 0.0
2015-Mar-20 17:33N 29°56' W 090°00'0 0.1
2015-Mar-20 16:32N 29°56' W 089°60'0 0.1
2015-Mar-20 15:29N 29°56' W 090°00'0 0.0
2015-Mar-20 14:33N 29°56' W 090°00'0 0.0
2015-Mar-20 13:32N 29°56' W 090°00'0 0.0
2015-Mar-20 12:32N 29°56' W 090°00'0 0.0
2015-Mar-20 11:31N 29°56' W 090°00'0 0.0
2015-Mar-20 10:18N 29°56' W 090°00'0 0.0
2015-Mar-19 15:24N 29°56' W 090°00'0 0.0
2015-Mar-19 14:18N 29°56' W 090°00'0 0.0
2015-Mar-19 12:28N 29°56' W 090°00'0 0.0
2015-Mar-19 11:31N 29°56' W 090°00'0 0.0
2015-Mar-19 10:33N 29°56' W 090°00'0 0.5
2015-Mar-19 09:32N 29°56' W 089°60'0 0.2
2015-Mar-19 08:29N 29°56' W 089°59'0 0.0
2015-Mar-19 07:32N 29°56' W 089°59'0 0.0
2015-Mar-19 06:29N 29°56' W 089°59'0 0.0
2015-Mar-19 05:22N 29°56' W 089°59'0 0.0
2015-Mar-19 04:31N 29°56' W 089°59'0 0.0
2015-Mar-19 03:33N 29°56' W 089°59'0 0.0
2015-Mar-19 02:31N 29°56' W 089°59'0 0.0
2015-Mar-19 01:31N 29°56' W 089°59'0 0.0
2015-Mar-19 00:32N 29°56' W 089°59'4 3.8
2015-Mar-18 23:33N 29°57' W 090°03'4 3.4
2015-Mar-18 22:17N 29°53' W 090°04'3 1.5
2015-Mar-18 20:32N 29°50' W 090°04'0 0.0
2015-Mar-18 18:10N 29°50' W 090°04'0 0.0
2015-Mar-18 16:12N 29°50' W 090°04'0 0.0
2015-Mar-17 18:29N 29°50' W 090°04'4 2.1
2015-Mar-17 16:32N 29°54' W 090°05'1 0.7
2015-Mar-17 15:28N 29°55' W 090°05'3 2.4
2015-Mar-17 14:17N 29°57' W 090°03'2 2.8
2015-Mar-17 13:33N 29°57' W 090°01'1 0.8
2015-Mar-17 12:32N 29°56' W 090°00'0 0.2
2015-Mar-17 11:33N 29°56' W 090°00'0 0.0
2015-Mar-17 10:31N 29°56' W 090°00'0 0.0
2015-Mar-17 09:32N 29°56' W 090°00'0 0.0
2015-Mar-17 08:32N 29°56' W 090°00'0 0.0
2015-Mar-17 07:33N 29°56' W 090°00'0 0.0
2015-Mar-17 06:33N 29°56' W 090°00'0 0.0
2015-Mar-17 05:30N 29°56' W 090°00'0 0.0
2015-Mar-17 04:32N 29°56' W 090°00'0 0.1
2015-Mar-17 03:32N 29°56' W 090°00'0 0.1
2015-Mar-17 02:34N 29°56' W 090°00'0 0.0
2015-Mar-17 01:33N 29°56' W 090°00'0 0.0
2015-Mar-17 00:29N 29°56' W 090°00'0 0.0
2015-Mar-16 23:31N 29°56' W 090°00'0 0.0
2015-Mar-16 22:23N 29°56' W 090°00'0 0.0
2015-Mar-16 21:33N 29°56' W 090°00'0 0.0
2015-Mar-16 20:32N 29°56' W 090°00'0 0.0
2015-Mar-16 19:27N 29°56' W 090°00'0 0.0
2015-Mar-16 18:10N 29°56' W 090°00'4 0.2
2015-Mar-15 22:33N 29°60' W 090°00'0 0.0
2015-Mar-15 20:28N 29°60' W 090°00'0 0.0
2015-Mar-15 19:10N 29°60' W 090°00'0 0.0
2015-Mar-15 18:32N 29°60' W 090°00'0 0.0
2015-Mar-15 17:29N 29°60' W 090°00'0 0.0
2015-Mar-15 16:30N 29°60' W 090°00'0 0.0
2015-Mar-15 15:30N 29°60' W 090°00'0 0.0
2015-Mar-15 14:27N 29°60' W 090°00'0 0.0
2015-Mar-15 13:30N 29°60' W 090°00'0 0.0
2015-Mar-15 12:33N 29°60' W 090°00'0 0.0
2015-Mar-15 11:31N 29°60' W 090°00'0 0.0
2015-Mar-15 10:33N 29°60' W 090°00'0 0.2
2015-Mar-15 09:32N 29°60' W 090°01'0 0.1
2015-Mar-15 08:33N 29°60' W 090°01'0 0.3
2015-Mar-15 07:33N 29°60' W 090°00'6 5.7
2015-Mar-15 06:33N 30°01' W 089°54'  

Dump ship's entire track history